Allendale, New Jersey
Current Conditions -  °F | °C
As of 3:51 AM on Saturday 25 Oct 2014 (Local Time) from KTEB Reporting Station
Clear Clear  
Wind Chill: 50°   Ceiling: Unl
Heat Index: 50°   Visibility: 10mi
Dew Point: 37°   Wind: 3mph
Humidity: 61%   Direction: 310°NW
Pressure: 29.85"   Gusts: NA
Location:  41.03°N, 74.14°W
Report Text: KTEB 250751Z 31003KT 10SM CLR 10/03 A2985 RMK AO2 SLP109 T01000028
Loading
Personal Weather Stations






























Interactive Weather Map
Tropical Storm Tracking
New forecast layout! Learn more

10-Day Weather Forecast

Advertisements
Track Severe Weather on mobile